Bookmark and Share
Track history (hours):
 

Iona Mcallister

More information available from US FCC via Universal Licensing System and Coast Guard Vessel Documentation Center.

Last reported at 2014-Apr-20 18:33 UTC. Time now 2014-Apr-20 19:08 UTC.
Position N 41°47' W 071°22'.

Length 36 m; draft 4 m.

Type: Towing. MMSI: 367149890.

NotesDate/timePositionNaut miles runAvg speedWind from/ knotsBaromVisibWave heightAir tempDewpointWater temp
2014-Apr-20 18:33N 41°47' W 071°22'7 6.8
2014-Apr-20 17:33N 41°40' W 071°22'4 3.0
2014-Apr-20 16:23N 41°37' W 071°24'0 0.0
2014-Apr-20 15:20N 41°37' W 071°24'0 0.0
2014-Apr-20 14:29N 41°37' W 071°24'0 0.0
2014-Apr-20 12:32N 41°37' W 071°24'0 0.0
2014-Apr-20 11:32N 41°37' W 071°24'0 0.0
2014-Apr-20 10:20N 41°37' W 071°24'1 1.0
2014-Apr-20 09:33N 41°36' W 071°24'1 1.2
2014-Apr-20 08:32N 41°35' W 071°24'0 0.0
2014-Apr-20 07:32N 41°35' W 071°24'0 0.0
2014-Apr-20 06:32N 41°35' W 071°24'0 0.0
2014-Apr-20 05:32N 41°35' W 071°24'0 0.0
2014-Apr-20 04:31N 41°35' W 071°24'0 0.0
2014-Apr-20 03:31N 41°35' W 071°24'0 0.0
2014-Apr-20 02:31N 41°35' W 071°24'0 0.0
2014-Apr-20 01:31N 41°35' W 071°24'0 0.0
2014-Apr-20 00:31N 41°35' W 071°24'0 0.0
2014-Apr-19 23:31N 41°35' W 071°24'0 0.0
2014-Apr-19 22:31N 41°35' W 071°24'1 0.8
2014-Apr-19 21:33N 41°36' W 071°24'1 0.6
2014-Apr-19 19:29N 41°37' W 071°24'0 0.0
2014-Apr-19 18:32N 41°37' W 071°24'0 0.0
2014-Apr-19 17:26N 41°37' W 071°24'0 0.0
2014-Apr-19 16:32N 41°37' W 071°24'0 0.0
2014-Apr-19 15:32N 41°37' W 071°24'0 0.0
2014-Apr-19 14:32N 41°37' W 071°24'0 0.0
2014-Apr-19 13:26N 41°37' W 071°24'0 0.0
2014-Apr-19 12:26N 41°37' W 071°24'0 0.0
2014-Apr-19 11:34N 41°37' W 071°24'1 0.6
2014-Apr-19 10:34N 41°36' W 071°24'0 0.3
2014-Apr-19 09:33N 41°36' W 071°24'5 3.9
2014-Apr-19 08:24N 41°32' W 071°21'6 7.3
2014-Apr-19 07:32N 41°26' W 071°21'8 8.5
2014-Apr-19 06:33N 41°26' W 071°10'9 8.8
2014-Apr-19 05:32N 41°28' W 070°59'8 8.1
2014-Apr-19 04:33N 41°35' W 070°53'1 0.9
2014-Apr-19 03:15N 41°36' W 070°53'5 6.5
2014-Apr-19 02:33N 41°32' W 070°51'6 6.0
2014-Apr-19 01:33N 41°28' W 070°57'8 8.0
2014-Apr-19 00:33N 41°25' W 071°07'8 8.2
2014-Apr-18 23:33N 41°25' W 071°18'6 6.0
2014-Apr-18 22:33N 41°31' W 071°20'9 9.0
2014-Apr-18 21:33N 41°40' W 071°19'8 8.1
2014-Apr-18 20:34N 41°47' W 071°23'2 1.8
2014-Apr-18 19:33N 41°49' W 071°24'0 0.0
2014-Apr-18 18:33N 41°49' W 071°24'0 0.0
2014-Apr-18 17:32N 41°49' W 071°24'0 0.0
2014-Apr-18 16:32N 41°49' W 071°24'0 0.0
2014-Apr-18 15:32N 41°49' W 071°24'0 0.0
2014-Apr-18 14:32N 41°49' W 071°24'2 2.3
2014-Apr-18 13:33N 41°47' W 071°22'0 0.5
2014-Apr-18 12:33N 41°47' W 071°23'5 4.7
2014-Apr-18 11:33N 41°43' W 071°20'9 9.4
2014-Apr-18 10:34N 41°34' W 071°19'9 9.0
2014-Apr-18 09:33N 41°25' W 071°24'9 8.7
2014-Apr-18 08:33N 41°19' W 071°31'10 9.9
2014-Apr-18 07:33N 41°17' W 071°44'1010.3
2014-Apr-18 06:33N 41°15' W 071°58'10 9.8
2014-Apr-18 05:34N 41°13' W 072°11'8 8.4
2014-Apr-18 04:33N 41°11' W 072°22'8 8.2
2014-Apr-18 03:33N 41°09' W 072°32'9 8.6
2014-Apr-18 02:33N 41°07' W 072°43'9 8.8
2014-Apr-18 01:32N 41°05' W 072°55'10 9.3
2014-Apr-18 00:25N 41°02' W 073°08'9 9.7
2014-Apr-17 23:31N 41°01' W 073°19'28 9.4
2014-Apr-17 20:33N 40°48' W 073°52'6 5.8
2014-Apr-17 19:33N 40°44' W 073°58'7 6.8
2014-Apr-17 18:33N 40°39' W 074°04'4 3.5
2014-Apr-17 17:32N 40°41' W 074°08'2 2.1
2014-Apr-17 16:33N 40°39' W 074°09'1 1.1
2014-Apr-17 15:31N 40°38' W 074°10'0 0.0
2014-Apr-17 14:25N 40°38' W 074°10'0 0.0
2014-Apr-17 13:31N 40°38' W 074°10'0 0.0
2014-Apr-16 21:22N 40°38' W 074°10'0 0.0
2014-Apr-16 20:32N 40°38' W 074°10'  

Dump ship's entire track history

sailing weather and tide predictions

Iona Mcallister — WDD4840 — position and weather